createdAt,value
2023-02-15T00:02:34.352Z,100.0
2023-02-15T00:08:05.888Z,100.0
2023-02-15T00:13:38.989Z,100.0
2023-02-15T00:19:09.406Z,100.0
2023-02-15T00:24:45.635Z,100.0
2023-02-15T00:30:17.195Z,100.0
2023-02-15T00:35:48.851Z,100.0
2023-02-15T00:41:20.539Z,100.0
2023-02-15T00:46:52.249Z,98.75
2023-02-15T00:52:23.992Z,98.32
2023-02-15T00:57:56.085Z,99.4
2023-02-15T01:03:27.962Z,96.75
2023-02-15T01:08:59.235Z,96.93
2023-02-15T01:14:31.142Z,98.54
2023-02-15T01:20:03.081Z,100.0
2023-02-15T01:25:41.634Z,98.45
2023-02-15T01:31:12.844Z,98.95
2023-02-15T01:36:44.391Z,99.29
2023-02-15T01:42:16.045Z,99.44
2023-02-15T01:47:47.851Z,98.15
2023-02-15T01:53:19.652Z,97.66
2023-02-15T01:58:51.287Z,96.33
2023-02-15T02:04:23.078Z,95.76
2023-02-15T02:09:54.801Z,95.51
2023-02-15T02:15:26.439Z,96.44
2023-02-15T02:20:58.093Z,96.14
2023-02-15T02:26:34.306Z,94.66
2023-02-15T02:32:06.198Z,93.41
2023-02-15T02:37:37.763Z,93.91
2023-02-15T02:43:09.490Z,95.53
2023-02-15T02:48:41.214Z,96.78
2023-02-15T02:54:12.994Z,98.45
2023-02-15T02:59:44.681Z,99.08
2023-02-15T03:05:16.377Z,98.64
2023-02-15T03:10:48.200Z,98.9
2023-02-15T03:16:20.275Z,99.29
2023-02-15T03:21:51.530Z,99.25
2023-02-15T03:27:29.841Z,99.45
2023-02-15T03:33:02.069Z,100.0
2023-02-15T03:38:33.118Z,100.0
2023-02-15T03:44:05.964Z,100.0
2023-02-15T03:49:36.766Z,100.0
2023-02-15T03:55:08.250Z,100.0
2023-02-15T04:00:40.008Z,100.0
2023-02-15T04:06:11.719Z,100.0
2023-02-15T04:11:43.513Z,100.0
2023-02-15T04:17:15.256Z,100.0
2023-02-15T04:22:47.037Z,100.0
2023-02-15T04:28:23.709Z,100.0
2023-02-15T04:33:55.138Z,100.0
2023-02-15T04:39:26.644Z,100.0
2023-02-15T04:44:58.383Z,100.0
2023-02-15T04:50:30.199Z,100.0
2023-02-15T04:56:02.872Z,100.0
2023-02-15T05:01:34.240Z,100.0
2023-02-15T05:07:05.385Z,100.0
2023-02-15T05:12:36.969Z,100.0
2023-02-15T05:18:09.132Z,100.0
2023-02-15T05:23:40.260Z,99.45
2023-02-15T05:29:16.470Z,99.55
2023-02-15T05:34:48.136Z,99.78
2023-02-15T05:40:19.872Z,100.0
2023-02-15T05:45:51.705Z,98.51
2023-02-15T05:51:23.355Z,99.5
2023-02-15T05:56:55.132Z,99.17
2023-02-15T06:02:26.905Z,99.64
2023-02-15T06:07:58.523Z,99.95
2023-02-15T06:13:30.634Z,100.0
2023-02-15T06:19:02.068Z,100.0
2023-02-15T06:24:33.753Z,100.0
2023-02-15T06:30:12.025Z,100.0
2023-02-15T06:35:43.548Z,99.89
2023-02-15T06:41:15.530Z,99.63
2023-02-15T06:46:47.165Z,99.7
2023-02-15T06:52:18.883Z,99.66
2023-02-15T06:57:51.482Z,100.0
2023-02-15T07:03:22.353Z,99.95
2023-02-15T07:08:53.978Z,100.0
2023-02-15T07:14:28.902Z,100.0
2023-02-15T07:19:57.534Z,100.0
2023-02-15T07:25:29.209Z,100.0
2023-02-15T07:31:05.507Z,99.95
2023-02-15T07:36:37.796Z,100.0
2023-02-15T07:42:09.215Z,100.0
2023-02-15T07:47:40.665Z,100.0
2023-02-15T07:53:12.315Z,100.0
2023-02-15T07:58:44.104Z,100.0
2023-02-15T08:04:15.759Z,100.0
2023-02-15T08:09:47.518Z,100.0
2023-02-15T08:15:19.149Z,100.0
2023-02-15T08:20:50.864Z,100.0
2023-02-15T08:26:22.579Z,100.0
2023-02-15T08:32:00.878Z,100.0
2023-02-15T08:37:32.620Z,100.0
2023-02-15T08:43:04.595Z,100.0
2023-02-15T08:48:36.098Z,100.0
2023-02-15T08:54:07.778Z,100.0
2023-02-15T08:59:40.116Z,100.0
2023-02-15T09:05:11.157Z,100.0
2023-02-15T09:10:42.790Z,100.0
2023-02-15T09:16:14.820Z,100.0
2023-02-15T09:21:46.374Z,100.0
2023-02-15T09:27:18.068Z,100.0
2023-02-15T09:32:54.242Z,100.0
2023-02-15T09:38:25.945Z,100.0
2023-02-15T09:43:57.555Z,100.0
2023-02-15T09:49:29.417Z,100.0
2023-02-15T09:55:01.332Z,100.0
2023-02-15T10:00:32.862Z,100.0
2023-02-15T10:06:04.641Z,100.0
2023-02-15T10:11:36.485Z,100.0
2023-02-15T10:17:07.987Z,100.0
2023-02-15T10:22:40.642Z,100.0
2023-02-15T10:28:11.474Z,100.0
2023-02-15T10:33:47.598Z,100.0
2023-02-15T10:39:19.366Z,100.0
2023-02-15T10:44:51.070Z,100.0
2023-02-15T10:50:22.866Z,100.0
2023-02-15T10:55:54.533Z,100.0
2023-02-15T11:01:26.480Z,100.0
2023-02-15T11:06:57.961Z,100.0
2023-02-15T11:12:29.590Z,100.0
2023-02-15T11:18:01.349Z,100.0
2023-02-15T11:23:33.455Z,100.0
2023-02-15T11:29:04.714Z,98.5
2023-02-15T11:34:43.105Z,96.04
2023-02-15T11:40:14.679Z,95.98
2023-02-15T11:45:46.523Z,95.36
2023-02-15T11:51:18.287Z,94.73
2023-02-15T11:56:50.068Z,95.59
2023-02-15T12:02:21.949Z,97.18
2023-02-15T12:07:53.569Z,93.03
2023-02-15T12:13:25.212Z,92.64
2023-02-15T12:18:56.941Z,93.31
2023-02-15T12:24:28.688Z,88.62
2023-02-15T12:30:00.591Z,89.58
2023-02-15T12:35:37.519Z,89.22
2023-02-15T12:41:08.363Z,88.11
2023-02-15T12:46:40.253Z,87.52
2023-02-15T12:52:11.699Z,87.89
2023-02-15T12:57:43.446Z,87.59
2023-02-15T13:03:15.360Z,88.31
2023-02-15T13:08:46.946Z,88.07
2023-02-15T13:14:18.763Z,89.14
2023-02-15T13:19:50.448Z,89.76
2023-02-15T13:25:22.139Z,89.29
2023-02-15T13:30:53.868Z,88.17
2023-02-15T13:36:30.078Z,89.99
2023-02-15T13:42:02.015Z,87.62
2023-02-15T13:47:33.495Z,87.68
2023-02-15T13:53:05.125Z,86.02
2023-02-15T13:58:36.946Z,86.0
2023-02-15T14:04:08.833Z,84.32
2023-02-15T14:09:41.298Z,85.6
2023-02-15T14:15:12.221Z,85.66
2023-02-15T14:20:43.881Z,85.27
2023-02-15T14:26:15.394Z,85.31
2023-02-15T14:31:47.432Z,85.57
2023-02-15T14:37:23.286Z,84.01
2023-02-15T14:42:55.060Z,83.21
2023-02-15T14:48:26.856Z,84.04
2023-02-15T14:53:58.784Z,83.59
2023-02-15T14:59:30.261Z,84.19
2023-02-15T15:05:01.944Z,82.67
2023-02-15T15:10:33.651Z,82.3
2023-02-15T15:16:06.068Z,83.62
2023-02-15T15:21:37.020Z,84.87
2023-02-15T15:27:09.044Z,85.44
2023-02-15T15:32:40.592Z,85.92
2023-02-15T15:38:16.752Z,86.81
2023-02-15T15:43:48.432Z,85.93
2023-02-15T15:49:20.281Z,86.02
2023-02-15T15:54:52.227Z,86.3
2023-02-15T16:00:23.626Z,86.06
2023-02-15T16:05:55.365Z,86.04
2023-02-15T16:11:27.096Z,86.38
2023-02-15T16:16:58.797Z,85.53
2023-02-15T16:22:31.014Z,85.56
2023-02-15T16:28:02.278Z,85.23
2023-02-15T16:33:33.953Z,85.49
2023-02-15T16:39:10.224Z,85.41
2023-02-15T16:44:41.947Z,86.22
2023-02-15T16:50:13.640Z,86.5
2023-02-15T16:55:45.669Z,86.52
2023-02-15T17:01:17.496Z,87.23
2023-02-15T17:06:48.903Z,86.71
2023-02-15T17:12:20.576Z,86.65
2023-02-15T17:17:52.328Z,86.77
2023-02-15T17:23:24.056Z,86.84
2023-02-15T17:28:55.923Z,86.45
2023-02-15T17:34:27.428Z,86.49
2023-02-15T17:40:03.475Z,86.76
2023-02-15T17:45:35.632Z,87.26
2023-02-15T17:51:07.092Z,86.91
2023-02-15T17:56:38.749Z,87.1
2023-02-15T18:02:10.574Z,87.4
2023-02-15T18:07:42.268Z,87.1
2023-02-15T18:13:14.040Z,87.78
2023-02-15T18:18:45.761Z,87.95
2023-02-15T18:24:17.517Z,88.85
2023-02-15T18:29:49.130Z,89.49
2023-02-15T18:35:21.028Z,88.62
2023-02-15T18:40:59.538Z,90.13
2023-02-15T18:46:30.760Z,90.15
2023-02-15T18:52:02.560Z,90.69
2023-02-15T18:57:34.163Z,90.64
2023-02-15T19:03:06.045Z,92.1
2023-02-15T19:08:37.643Z,90.86
2023-02-15T19:14:10.317Z,91.39
2023-02-15T19:19:41.230Z,93.7
2023-02-15T19:25:13.134Z,92.95
2023-02-15T19:30:44.580Z,93.45
2023-02-15T19:36:16.270Z,94.06
2023-02-15T19:41:52.510Z,94.39
2023-02-15T19:47:24.237Z,94.85
2023-02-15T19:52:56.190Z,94.77
2023-02-15T19:58:27.548Z,94.28
2023-02-15T20:03:59.466Z,94.9
2023-02-15T20:09:31.780Z,95.25
2023-02-15T20:15:02.956Z,94.51
2023-02-15T20:20:34.525Z,93.85
2023-02-15T20:26:06.157Z,93.73
2023-02-15T20:31:38.211Z,92.96
2023-02-15T20:37:09.730Z,92.69
2023-02-15T20:42:45.911Z,92.51
2023-02-15T20:48:17.567Z,92.57
2023-02-15T20:53:49.257Z,93.06
2023-02-15T20:59:21.134Z,93.31
2023-02-15T21:04:52.870Z,91.58
2023-02-15T21:10:24.439Z,91.0
2023-02-15T21:15:56.413Z,91.07
2023-02-15T21:21:27.887Z,91.81
2023-02-15T21:26:59.770Z,91.33
2023-02-15T21:32:31.942Z,90.92
2023-02-15T21:38:03.811Z,91.29
2023-02-15T21:43:39.383Z,90.67
2023-02-15T21:49:11.297Z,90.07
2023-02-15T21:54:42.886Z,89.9
2023-02-15T22:00:14.898Z,90.64
2023-02-15T22:05:46.321Z,90.12
2023-02-15T22:11:18.055Z,90.7
2023-02-15T22:16:50.275Z,90.58
2023-02-15T22:22:21.397Z,91.78
2023-02-15T22:27:53.334Z,90.72
2023-02-15T22:33:24.852Z,90.5
2023-02-15T22:38:56.513Z,90.52
2023-02-15T22:44:34.930Z,90.38
2023-02-15T22:50:06.487Z,90.02
2023-02-15T22:55:38.233Z,90.15
2023-02-15T23:01:10.798Z,90.26
2023-02-15T23:06:42.143Z,89.71
2023-02-15T23:12:13.160Z,91.07
2023-02-15T23:17:45.819Z,90.51
2023-02-15T23:23:16.631Z,90.97
2023-02-15T23:28:48.451Z,90.78
2023-02-15T23:34:20.115Z,91.13
2023-02-15T23:39:52.245Z,91.06
2023-02-15T23:45:30.016Z,91.67
2023-02-15T23:51:02.231Z,92.08
2023-02-15T23:56:33.388Z,91.18
